sensor_id;sensor_type;location;lat;lon;timestamp;P1;durP1;ratioP1;P2;durP2;ratioP2
73585;SDS011;61865;50.232;18.614;2023-10-13T00:00:49;27.02;;;15.15;;
73585;SDS011;61865;50.232;18.614;2023-10-13T00:03:17;34.08;;;16.70;;
73585;SDS011;61865;50.232;18.614;2023-10-13T00:05:43;37.25;;;17.42;;
73585;SDS011;61865;50.232;18.614;2023-10-13T00:08:05;45.50;;;18.00;;
73585;SDS011;61865;50.232;18.614;2023-10-13T00:10:29;39.40;;;19.90;;
73585;SDS011;61865;50.232;18.614;2023-10-13T00:12:54;43.75;;;18.65;;
73585;SDS011;61865;50.232;18.614;2023-10-13T00:15:32;38.25;;;18.13;;
73585;SDS011;61865;50.232;18.614;2023-10-13T00:18:00;32.90;;;16.73;;
73585;SDS011;61865;50.232;18.614;2023-10-13T00:20:31;34.90;;;15.00;;
73585;SDS011;61865;50.232;18.614;2023-10-13T00:22:58;26.70;;;14.45;;
73585;SDS011;61865;50.232;18.614;2023-10-13T00:25:23;27.80;;;14.70;;
73585;SDS011;61865;50.232;18.614;2023-10-13T00:27:49;38.20;;;15.15;;
73585;SDS011;61865;50.232;18.614;2023-10-13T00:30:12;27.77;;;16.08;;
73585;SDS011;61865;50.232;18.614;2023-10-13T00:32:42;27.08;;;14.00;;
73585;SDS011;61865;50.232;18.614;2023-10-13T00:35:05;32.72;;;16.70;;
73585;SDS011;61865;50.232;18.614;2023-10-13T00:37:33;30.52;;;16.10;;
73585;SDS011;61865;50.232;18.614;2023-10-13T00:42:36;36.20;;;15.10;;
73585;SDS011;61865;50.232;18.614;2023-10-13T00:45:12;34.28;;;17.10;;
73585;SDS011;61865;50.232;18.614;2023-10-13T00:47:39;31.77;;;14.95;;
73585;SDS011;61865;50.232;18.614;2023-10-13T00:50:12;28.73;;;14.70;;
73585;SDS011;61865;50.232;18.614;2023-10-13T00:52:38;27.35;;;16.23;;
73585;SDS011;61865;50.232;18.614;2023-10-13T00:55:04;26.55;;;16.20;;
73585;SDS011;61865;50.232;18.614;2023-10-13T00:57:31;31.45;;;16.48;;
73585;SDS011;61865;50.232;18.614;2023-10-13T01:00:04;35.50;;;16.38;;
73585;SDS011;61865;50.232;18.614;2023-10-13T01:02:40;29.98;;;15.65;;
73585;SDS011;61865;50.232;18.614;2023-10-13T01:05:02;30.67;;;15.30;;
73585;SDS011;61865;50.232;18.614;2023-10-13T01:07:24;25.85;;;14.80;;
73585;SDS011;61865;50.232;18.614;2023-10-13T01:12:10;28.92;;;15.18;;
73585;SDS011;61865;50.232;18.614;2023-10-13T01:14:31;34.47;;;15.65;;
73585;SDS011;61865;50.232;18.614;2023-10-13T01:16:55;29.60;;;16.20;;
73585;SDS011;61865;50.232;18.614;2023-10-13T01:19:22;41.95;;;14.27;;
73585;SDS011;61865;50.232;18.614;2023-10-13T01:21:47;31.80;;;16.13;;
73585;SDS011;61865;50.232;18.614;2023-10-13T01:24:17;29.05;;;15.95;;
73585;SDS011;61865;50.232;18.614;2023-10-13T01:26:44;28.02;;;15.18;;
73585;SDS011;61865;50.232;18.614;2023-10-13T01:29:11;33.88;;;15.80;;
73585;SDS011;61865;50.232;18.614;2023-10-13T01:31:35;31.75;;;16.25;;
73585;SDS011;61865;50.232;18.614;2023-10-13T01:33:57;28.30;;;14.40;;
73585;SDS011;61865;50.232;18.614;2023-10-13T01:36:22;28.55;;;15.60;;
73585;SDS011;61865;50.232;18.614;2023-10-13T01:38:44;32.90;;;16.27;;
73585;SDS011;61865;50.232;18.614;2023-10-13T01:41:14;30.67;;;15.20;;
73585;SDS011;61865;50.232;18.614;2023-10-13T01:43:41;27.20;;;15.63;;
73585;SDS011;61865;50.232;18.614;2023-10-13T01:46:07;26.08;;;14.95;;
73585;SDS011;61865;50.232;18.614;2023-10-13T01:48:29;30.05;;;15.07;;
73585;SDS011;61865;50.232;18.614;2023-10-13T01:50:59;24.38;;;15.10;;
73585;SDS011;61865;50.232;18.614;2023-10-13T01:53:22;31.55;;;16.33;;
73585;SDS011;61865;50.232;18.614;2023-10-13T01:55:49;35.13;;;16.45;;
73585;SDS011;61865;50.232;18.614;2023-10-13T01:58:14;27.38;;;14.18;;
73585;SDS011;61865;50.232;18.614;2023-10-13T02:00:36;33.03;;;16.40;;
73585;SDS011;61865;50.232;18.614;2023-10-13T02:03:05;33.30;;;15.88;;
73585;SDS011;61865;50.232;18.614;2023-10-13T02:05:36;28.30;;;16.20;;
73585;SDS011;61865;50.232;18.614;2023-10-13T02:08:00;43.40;;;16.88;;
73585;SDS011;61865;50.232;18.614;2023-10-13T02:10:25;374.15;;;26.52;;
73585;SDS011;61865;50.232;18.614;2023-10-13T02:12:48;41.83;;;11.60;;
73585;SDS011;61865;50.232;18.614;2023-10-13T02:15:17;28.40;;;16.92;;
73585;SDS011;61865;50.232;18.614;2023-10-13T02:17:42;29.02;;;15.07;;
73585;SDS011;61865;50.232;18.614;2023-10-13T02:20:11;39.47;;;18.08;;
73585;SDS011;61865;50.232;18.614;2023-10-13T02:22:35;35.08;;;17.38;;
73585;SDS011;61865;50.232;18.614;2023-10-13T02:24:58;33.08;;;16.25;;
73585;SDS011;61865;50.232;18.614;2023-10-13T02:27:26;27.23;;;17.10;;
73585;SDS011;61865;50.232;18.614;2023-10-13T02:29:48;26.48;;;16.20;;
73585;SDS011;61865;50.232;18.614;2023-10-13T02:32:19;31.05;;;15.52;;
73585;SDS011;61865;50.232;18.614;2023-10-13T02:34:41;28.38;;;15.15;;
73585;SDS011;61865;50.232;18.614;2023-10-13T02:37:06;73.30;;;16.50;;
73585;SDS011;61865;50.232;18.614;2023-10-13T02:39:29;26.35;;;14.70;;
73585;SDS011;61865;50.232;18.614;2023-10-13T02:41:56;26.88;;;14.20;;
73585;SDS011;61865;50.232;18.614;2023-10-13T02:44:18;28.17;;;16.20;;
73585;SDS011;61865;50.232;18.614;2023-10-13T02:46:47;26.33;;;15.35;;
73585;SDS011;61865;50.232;18.614;2023-10-13T02:49:13;27.65;;;16.20;;
73585;SDS011;61865;50.232;18.614;2023-10-13T02:51:39;24.98;;;14.20;;
73585;SDS011;61865;50.232;18.614;2023-10-13T02:54:05;38.17;;;17.17;;
73585;SDS011;61865;50.232;18.614;2023-10-13T02:56:32;28.70;;;17.80;;
73585;SDS011;61865;50.232;18.614;2023-10-13T02:58:58;35.42;;;18.65;;
73585;SDS011;61865;50.232;18.614;2023-10-13T03:01:25;25.58;;;18.40;;
73585;SDS011;61865;50.232;18.614;2023-10-13T03:03:50;26.92;;;16.08;;
73585;SDS011;61865;50.232;18.614;2023-10-13T03:06:15;26.10;;;15.00;;
73585;SDS011;61865;50.232;18.614;2023-10-13T03:08:37;27.73;;;15.52;;
73585;SDS011;61865;50.232;18.614;2023-10-13T03:11:00;30.23;;;16.42;;
73585;SDS011;61865;50.232;18.614;2023-10-13T03:13:28;28.77;;;15.80;;
73585;SDS011;61865;50.232;18.614;2023-10-13T03:15:56;27.73;;;14.73;;
73585;SDS011;61865;50.232;18.614;2023-10-13T03:18:18;21.50;;;14.35;;
73585;SDS011;61865;50.232;18.614;2023-10-13T03:20:40;28.48;;;14.32;;
73585;SDS011;61865;50.232;18.614;2023-10-13T03:23:08;25.88;;;14.85;;
73585;SDS011;61865;50.232;18.614;2023-10-13T03:25:36;26.40;;;14.82;;
73585;SDS011;61865;50.232;18.614;2023-10-13T03:28:02;21.45;;;14.25;;
73585;SDS011;61865;50.232;18.614;2023-10-13T03:30:27;24.20;;;13.50;;
73585;SDS011;61865;50.232;18.614;2023-10-13T03:32:58;28.67;;;15.48;;
73585;SDS011;61865;50.232;18.614;2023-10-13T03:35:27;21.73;;;14.20;;
73585;SDS011;61865;50.232;18.614;2023-10-13T03:37:58;25.17;;;13.57;;
73585;SDS011;61865;50.232;18.614;2023-10-13T03:40:22;24.35;;;13.43;;
73585;SDS011;61865;50.232;18.614;2023-10-13T03:42:59;23.92;;;12.98;;
73585;SDS011;61865;50.232;18.614;2023-10-13T03:45:24;27.27;;;13.27;;
73585;SDS011;61865;50.232;18.614;2023-10-13T03:47:52;24.58;;;14.13;;
73585;SDS011;61865;50.232;18.614;2023-10-13T03:50:15;24.98;;;13.57;;
73585;SDS011;61865;50.232;18.614;2023-10-13T03:52:51;23.50;;;12.30;;
73585;SDS011;61865;50.232;18.614;2023-10-13T03:55:18;21.48;;;12.07;;
73585;SDS011;61865;50.232;18.614;2023-10-13T03:57:47;21.33;;;11.43;;
73585;SDS011;61865;50.232;18.614;2023-10-13T04:03:15;25.25;;;13.90;;
73585;SDS011;61865;50.232;18.614;2023-10-13T04:05:38;22.33;;;13.07;;
73585;SDS011;61865;50.232;18.614;2023-10-13T04:08:05;21.48;;;11.70;;
73585;SDS011;61865;50.232;18.614;2023-10-13T04:10:56;19.10;;;11.35;;
73585;SDS011;61865;50.232;18.614;2023-10-13T04:13:50;29.45;;;13.68;;
73585;SDS011;61865;50.232;18.614;2023-10-13T04:16:32;28.20;;;11.82;;
73585;SDS011;61865;50.232;18.614;2023-10-13T04:18:58;20.00;;;11.05;;
73585;SDS011;61865;50.232;18.614;2023-10-13T04:21:39;18.05;;;11.05;;
73585;SDS011;61865;50.232;18.614;2023-10-13T04:24:17;17.88;;;11.90;;
73585;SDS011;61865;50.232;18.614;2023-10-13T04:26:57;20.73;;;11.80;;
73585;SDS011;61865;50.232;18.614;2023-10-13T04:29:35;19.35;;;13.13;;
73585;SDS011;61865;50.232;18.614;2023-10-13T04:32:24;25.25;;;11.98;;
73585;SDS011;61865;50.232;18.614;2023-10-13T04:35:29;22.90;;;10.23;;
73585;SDS011;61865;50.232;18.614;2023-10-13T04:38:09;21.90;;;10.95;;
73585;SDS011;61865;50.232;18.614;2023-10-13T04:40:45;17.60;;;9.75;;
73585;SDS011;61865;50.232;18.614;2023-10-13T04:43:21;19.98;;;10.77;;
73585;SDS011;61865;50.232;18.614;2023-10-13T04:46:01;20.25;;;10.95;;
73585;SDS011;61865;50.232;18.614;2023-10-13T04:48:45;22.65;;;13.00;;
73585;SDS011;61865;50.232;18.614;2023-10-13T04:51:25;30.05;;;14.77;;
73585;SDS011;61865;50.232;18.614;2023-10-13T04:56:34;25.23;;;12.57;;
73585;SDS011;61865;50.232;18.614;2023-10-13T04:59:12;24.90;;;12.27;;
73585;SDS011;61865;50.232;18.614;2023-10-13T05:01:59;25.15;;;13.02;;
73585;SDS011;61865;50.232;18.614;2023-10-13T05:04:36;24.90;;;13.18;;
73585;SDS011;61865;50.232;18.614;2023-10-13T05:07:32;22.77;;;13.05;;
73585;SDS011;61865;50.232;18.614;2023-10-13T05:10:12;17.80;;;11.60;;
73585;SDS011;61865;50.232;18.614;2023-10-13T05:12:51;26.00;;;13.15;;
73585;SDS011;61865;50.232;18.614;2023-10-13T05:15:31;22.48;;;12.25;;
73585;SDS011;61865;50.232;18.614;2023-10-13T05:18:15;17.42;;;11.02;;
73585;SDS011;61865;50.232;18.614;2023-10-13T05:20:55;23.55;;;12.57;;
73585;SDS011;61865;50.232;18.614;2023-10-13T05:23:35;25.40;;;12.18;;
73585;SDS011;61865;50.232;18.614;2023-10-13T05:26:15;20.58;;;11.23;;
73585;SDS011;61865;50.232;18.614;2023-10-13T05:28:55;19.95;;;10.52;;
73585;SDS011;61865;50.232;18.614;2023-10-13T05:31:37;19.70;;;9.52;;
73585;SDS011;61865;50.232;18.614;2023-10-13T05:36:59;18.08;;;9.60;;
73585;SDS011;61865;50.232;18.614;2023-10-13T05:39:51;15.82;;;8.70;;
73585;SDS011;61865;50.232;18.614;2023-10-13T05:42:31;20.83;;;9.80;;
73585;SDS011;61865;50.232;18.614;2023-10-13T05:45:11;15.63;;;9.23;;
73585;SDS011;61865;50.232;18.614;2023-10-13T05:48:18;20.60;;;9.25;;
73585;SDS011;61865;50.232;18.614;2023-10-13T05:50:59;17.13;;;8.50;;
73585;SDS011;61865;50.232;18.614;2023-10-13T05:53:36;17.73;;;8.45;;
73585;SDS011;61865;50.232;18.614;2023-10-13T05:56:14;15.63;;;9.27;;
73585;SDS011;61865;50.232;18.614;2023-10-13T05:58:57;14.77;;;9.10;;
73585;SDS011;61865;50.232;18.614;2023-10-13T06:01:37;15.43;;;8.55;;
73585;SDS011;61865;50.232;18.614;2023-10-13T06:04:17;13.30;;;9.48;;
73585;SDS011;61865;50.232;18.614;2023-10-13T06:06:57;20.70;;;9.38;;
73585;SDS011;61865;50.232;18.614;2023-10-13T06:09:38;22.98;;;10.35;;
73585;SDS011;61865;50.232;18.614;2023-10-13T06:12:19;12.63;;;7.95;;
73585;SDS011;61865;50.232;18.614;2023-10-13T06:14:59;17.25;;;9.52;;
73585;SDS011;61865;50.232;18.614;2023-10-13T06:17:42;16.23;;;8.55;;
73585;SDS011;61865;50.232;18.614;2023-10-13T06:20:26;13.65;;;8.63;;
73585;SDS011;61865;50.232;18.614;2023-10-13T06:23:12;17.80;;;9.27;;
73585;SDS011;61865;50.232;18.614;2023-10-13T06:25:55;22.27;;;9.30;;
73585;SDS011;61865;50.232;18.614;2023-10-13T06:28:37;17.08;;;8.20;;
73585;SDS011;61865;50.232;18.614;2023-10-13T06:31:06;14.70;;;9.15;;
73585;SDS011;61865;50.232;18.614;2023-10-13T06:33:28;16.92;;;8.73;;
73585;SDS011;61865;50.232;18.614;2023-10-13T06:35:54;19.90;;;9.15;;
73585;SDS011;61865;50.232;18.614;2023-10-13T06:38:16;14.27;;;8.60;;
73585;SDS011;61865;50.232;18.614;2023-10-13T06:40:44;13.70;;;8.23;;
73585;SDS011;61865;50.232;18.614;2023-10-13T06:43:10;16.33;;;8.40;;
73585;SDS011;61865;50.232;18.614;2023-10-13T06:45:36;13.77;;;7.32;;
73585;SDS011;61865;50.232;18.614;2023-10-13T06:47:59;15.38;;;8.65;;
73585;SDS011;61865;50.232;18.614;2023-10-13T06:50:21;13.27;;;7.82;;
73585;SDS011;61865;50.232;18.614;2023-10-13T06:52:48;14.35;;;7.70;;
73585;SDS011;61865;50.232;18.614;2023-10-13T06:55:10;13.75;;;8.30;;
73585;SDS011;61865;50.232;18.614;2023-10-13T06:57:37;18.52;;;8.48;;
73585;SDS011;61865;50.232;18.614;2023-10-13T07:00:05;15.80;;;8.20;;
73585;SDS011;61865;50.232;18.614;2023-10-13T07:02:31;12.70;;;7.72;;
73585;SDS011;61865;50.232;18.614;2023-10-13T07:04:54;14.68;;;7.90;;
73585;SDS011;61865;50.232;18.614;2023-10-13T07:07:27;14.80;;;9.05;;
73585;SDS011;61865;50.232;18.614;2023-10-13T07:09:50;16.40;;;8.23;;
73585;SDS011;61865;50.232;18.614;2023-10-13T07:12:18;15.68;;;8.18;;
73585;SDS011;61865;50.232;18.614;2023-10-13T07:14:46;14.32;;;8.38;;
73585;SDS011;61865;50.232;18.614;2023-10-13T07:17:21;14.85;;;8.13;;
73585;SDS011;61865;50.232;18.614;2023-10-13T07:19:45;14.95;;;7.88;;
73585;SDS011;61865;50.232;18.614;2023-10-13T07:22:16;15.10;;;9.75;;
73585;SDS011;61865;50.232;18.614;2023-10-13T07:24:44;17.95;;;8.35;;
73585;SDS011;61865;50.232;18.614;2023-10-13T07:27:17;20.65;;;9.02;;
73585;SDS011;61865;50.232;18.614;2023-10-13T07:29:44;14.50;;;8.73;;
73585;SDS011;61865;50.232;18.614;2023-10-13T07:32:10;14.15;;;9.07;;
73585;SDS011;61865;50.232;18.614;2023-10-13T07:34:45;14.77;;;8.27;;
73585;SDS011;61865;50.232;18.614;2023-10-13T07:37:10;16.13;;;8.57;;
73585;SDS011;61865;50.232;18.614;2023-10-13T07:39:41;14.68;;;8.02;;
73585;SDS011;61865;50.232;18.614;2023-10-13T07:42:17;13.43;;;8.23;;
73585;SDS011;61865;50.232;18.614;2023-10-13T07:44:42;16.50;;;7.68;;
73585;SDS011;61865;50.232;18.614;2023-10-13T07:47:16;12.63;;;7.88;;
73585;SDS011;61865;50.232;18.614;2023-10-13T07:50:14;15.57;;;7.63;;
73585;SDS011;61865;50.232;18.614;2023-10-13T07:52:45;20.33;;;8.10;;
73585;SDS011;61865;50.232;18.614;2023-10-13T07:55:21;12.50;;;7.63;;
73585;SDS011;61865;50.232;18.614;2023-10-13T07:57:57;17.52;;;7.78;;
73585;SDS011;61865;50.232;18.614;2023-10-13T08:00:36;15.43;;;7.53;;
73585;SDS011;61865;50.232;18.614;2023-10-13T08:03:15;15.82;;;8.02;;
73585;SDS011;61865;50.232;18.614;2023-10-13T08:05:56;11.70;;;6.85;;
73585;SDS011;61865;50.232;18.614;2023-10-13T08:08:47;18.73;;;7.82;;
73585;SDS011;61865;50.232;18.614;2023-10-13T08:11:21;20.75;;;8.02;;
73585;SDS011;61865;50.232;18.614;2023-10-13T08:13:58;18.77;;;7.13;;
73585;SDS011;61865;50.232;18.614;2023-10-13T08:16:31;12.77;;;7.18;;
73585;SDS011;61865;50.232;18.614;2023-10-13T08:19:08;13.77;;;6.45;;
73585;SDS011;61865;50.232;18.614;2023-10-13T08:21:40;14.02;;;6.40;;
73585;SDS011;61865;50.232;18.614;2023-10-13T08:24:09;11.45;;;6.38;;
73585;SDS011;61865;50.232;18.614;2023-10-13T08:26:48;13.82;;;5.90;;
73585;SDS011;61865;50.232;18.614;2023-10-13T08:29:46;13.23;;;6.40;;
73585;SDS011;61865;50.232;18.614;2023-10-13T08:32:27;14.25;;;6.10;;
73585;SDS011;61865;50.232;18.614;2023-10-13T08:35:12;12.57;;;6.00;;
73585;SDS011;61865;50.232;18.614;2023-10-13T08:38:03;12.48;;;5.40;;
73585;SDS011;61865;50.232;18.614;2023-10-13T08:40:37;14.00;;;5.93;;
73585;SDS011;61865;50.232;18.614;2023-10-13T08:43:17;10.82;;;5.07;;
73585;SDS011;61865;50.232;18.614;2023-10-13T08:45:51;11.88;;;5.45;;
73585;SDS011;61865;50.232;18.614;2023-10-13T08:48:22;15.50;;;5.18;;
73585;SDS011;61865;50.232;18.614;2023-10-13T08:50:59;14.98;;;5.90;;
73585;SDS011;61865;50.232;18.614;2023-10-13T08:54:03;12.38;;;6.07;;
73585;SDS011;61865;50.232;18.614;2023-10-13T08:56:41;12.98;;;6.30;;
73585;SDS011;61865;50.232;18.614;2023-10-13T08:59:08;10.70;;;6.57;;
73585;SDS011;61865;50.232;18.614;2023-10-13T09:01:33;14.63;;;5.30;;
73585;SDS011;61865;50.232;18.614;2023-10-13T09:04:49;10.45;;;5.93;;
73585;SDS011;61865;50.232;18.614;2023-10-13T09:07:30;11.13;;;5.40;;
73585;SDS011;61865;50.232;18.614;2023-10-13T09:10:02;10.35;;;5.13;;
73585;SDS011;61865;50.232;18.614;2023-10-13T09:12:55;10.75;;;4.78;;
73585;SDS011;61865;50.232;18.614;2023-10-13T09:15:29;10.70;;;4.93;;
73585;SDS011;61865;50.232;18.614;2023-10-13T09:18:13;11.75;;;4.90;;
73585;SDS011;61865;50.232;18.614;2023-10-13T09:23:58;10.13;;;4.50;;
73585;SDS011;61865;50.232;18.614;2023-10-13T09:26:57;10.52;;;4.40;;
73585;SDS011;61865;50.232;18.614;2023-10-13T09:29:38;11.20;;;5.10;;
73585;SDS011;61865;50.232;18.614;2023-10-13T09:32:04;10.38;;;4.53;;
73585;SDS011;61865;50.232;18.614;2023-10-13T09:34:44;8.35;;;4.45;;
73585;SDS011;61865;50.232;18.614;2023-10-13T09:37:11;13.07;;;4.55;;
73585;SDS011;61865;50.232;18.614;2023-10-13T09:39:41;9.75;;;4.72;;
73585;SDS011;61865;50.232;18.614;2023-10-13T09:42:19;9.82;;;3.38;;
73585;SDS011;61865;50.232;18.614;2023-10-13T09:44:43;8.45;;;4.47;;
73585;SDS011;61865;50.232;18.614;2023-10-13T09:47:11;9.75;;;4.55;;
73585;SDS011;61865;50.232;18.614;2023-10-13T09:49:43;13.80;;;5.13;;
73585;SDS011;61865;50.232;18.614;2023-10-13T09:52:16;11.93;;;4.70;;
73585;SDS011;61865;50.232;18.614;2023-10-13T09:54:50;9.93;;;4.60;;
73585;SDS011;61865;50.232;18.614;2023-10-13T09:57:49;11.63;;;4.45;;
73585;SDS011;61865;50.232;18.614;2023-10-13T10:03:22;12.25;;;5.38;;
73585;SDS011;61865;50.232;18.614;2023-10-13T10:06:06;9.13;;;4.72;;
73585;SDS011;61865;50.232;18.614;2023-10-13T10:08:44;9.82;;;5.38;;
73585;SDS011;61865;50.232;18.614;2023-10-13T10:14:06;7.93;;;4.65;;
73585;SDS011;61865;50.232;18.614;2023-10-13T10:16:54;9.48;;;5.05;;
73585;SDS011;61865;50.232;18.614;2023-10-13T10:19:27;9.05;;;4.90;;
73585;SDS011;61865;50.232;18.614;2023-10-13T10:21:52;12.32;;;5.03;;
73585;SDS011;61865;50.232;18.614;2023-10-13T10:24:37;15.45;;;5.20;;
73585;SDS011;61865;50.232;18.614;2023-10-13T10:27:23;10.60;;;5.07;;
73585;SDS011;61865;50.232;18.614;2023-10-13T10:30:01;12.70;;;4.65;;
73585;SDS011;61865;50.232;18.614;2023-10-13T10:32:37;9.75;;;4.78;;
73585;SDS011;61865;50.232;18.614;2023-10-13T10:35:22;10.07;;;4.57;;
73585;SDS011;61865;50.232;18.614;2023-10-13T10:37:49;10.05;;;3.45;;
73585;SDS011;61865;50.232;18.614;2023-10-13T10:40:27;10.30;;;4.60;;
73585;SDS011;61865;50.232;18.614;2023-10-13T10:43:26;11.45;;;4.10;;
73585;SDS011;61865;50.232;18.614;2023-10-13T10:45:56;8.13;;;4.13;;
73585;SDS011;61865;50.232;18.614;2023-10-13T10:48:21;10.38;;;4.57;;
73585;SDS011;61865;50.232;18.614;2023-10-13T10:50:51;13.40;;;4.80;;
73585;SDS011;61865;50.232;18.614;2023-10-13T10:53:38;8.88;;;4.50;;
73585;SDS011;61865;50.232;18.614;2023-10-13T10:56:16;10.38;;;4.50;;
73585;SDS011;61865;50.232;18.614;2023-10-13T10:58:45;9.25;;;3.90;;
73585;SDS011;61865;50.232;18.614;2023-10-13T11:01:28;11.55;;;4.55;;
73585;SDS011;61865;50.232;18.614;2023-10-13T11:04:20;10.93;;;5.00;;
73585;SDS011;61865;50.232;18.614;2023-10-13T11:06:57;11.15;;;5.03;;
73585;SDS011;61865;50.232;18.614;2023-10-13T11:09:47;19.65;;;5.13;;
73585;SDS011;61865;50.232;18.614;2023-10-13T11:12:21;11.82;;;4.75;;
73585;SDS011;61865;50.232;18.614;2023-10-13T11:15:01;9.95;;;4.55;;
73585;SDS011;61865;50.232;18.614;2023-10-13T11:17:38;9.43;;;4.38;;
73585;SDS011;61865;50.232;18.614;2023-10-13T11:20:11;11.40;;;5.20;;
73585;SDS011;61865;50.232;18.614;2023-10-13T11:22:47;9.93;;;4.70;;
73585;SDS011;61865;50.232;18.614;2023-10-13T11:25:29;9.88;;;4.40;;
73585;SDS011;61865;50.232;18.614;2023-10-13T11:28:09;17.42;;;4.95;;
73585;SDS011;61865;50.232;18.614;2023-10-13T11:30:50;9.00;;;4.68;;
73585;SDS011;61865;50.232;18.614;2023-10-13T11:33:52;12.57;;;4.53;;
73585;SDS011;61865;50.232;18.614;2023-10-13T11:36:16;9.82;;;4.28;;
73585;SDS011;61865;50.232;18.614;2023-10-13T11:38:42;10.13;;;4.10;;
73585;SDS011;61865;50.232;18.614;2023-10-13T11:41:09;9.00;;;4.65;;
73585;SDS011;61865;50.232;18.614;2023-10-13T11:43:35;10.80;;;4.32;;
73585;SDS011;61865;50.232;18.614;2023-10-13T11:46:13;8.23;;;4.18;;
73585;SDS011;61865;50.232;18.614;2023-10-13T11:48:35;9.27;;;3.67;;
73585;SDS011;61865;50.232;18.614;2023-10-13T11:50:59;9.40;;;3.90;;
73585;SDS011;61865;50.232;18.614;2023-10-13T11:53:25;7.22;;;3.33;;
73585;SDS011;61865;50.232;18.614;2023-10-13T11:55:49;8.63;;;3.63;;
73585;SDS011;61865;50.232;18.614;2023-10-13T11:58:11;6.45;;;3.40;;
73585;SDS011;61865;50.232;18.614;2023-10-13T12:00:37;12.75;;;3.70;;
73585;SDS011;61865;50.232;18.614;2023-10-13T12:03:14;13.23;;;3.35;;
73585;SDS011;61865;50.232;18.614;2023-10-13T12:05:54;5.78;;;3.20;;
73585;SDS011;61865;50.232;18.614;2023-10-13T12:08:39;11.02;;;3.53;;
73585;SDS011;61865;50.232;18.614;2023-10-13T12:11:09;7.70;;;3.60;;
73585;SDS011;61865;50.232;18.614;2023-10-13T12:13:45;7.50;;;3.72;;
73585;SDS011;61865;50.232;18.614;2023-10-13T12:16:07;8.80;;;3.47;;
73585;SDS011;61865;50.232;18.614;2023-10-13T12:18:31;7.90;;;3.20;;
73585;SDS011;61865;50.232;18.614;2023-10-13T12:20:53;8.25;;;3.35;;
73585;SDS011;61865;50.232;18.614;2023-10-13T12:23:17;9.32;;;3.15;;
73585;SDS011;61865;50.232;18.614;2023-10-13T12:25:42;9.98;;;3.90;;
73585;SDS011;61865;50.232;18.614;2023-10-13T12:28:22;9.88;;;3.72;;
73585;SDS011;61865;50.232;18.614;2023-10-13T12:30:46;6.60;;;2.85;;
73585;SDS011;61865;50.232;18.614;2023-10-13T12:33:13;9.48;;;3.50;;
73585;SDS011;61865;50.232;18.614;2023-10-13T12:35:43;6.93;;;3.10;;
73585;SDS011;61865;50.232;18.614;2023-10-13T12:38:23;7.28;;;3.35;;
73585;SDS011;61865;50.232;18.614;2023-10-13T12:40:58;8.07;;;3.35;;
73585;SDS011;61865;50.232;18.614;2023-10-13T12:46:26;9.23;;;2.80;;
73585;SDS011;61865;50.232;18.614;2023-10-13T12:49:06;8.98;;;3.10;;
73585;SDS011;61865;50.232;18.614;2023-10-13T12:51:48;8.30;;;2.92;;
73585;SDS011;61865;50.232;18.614;2023-10-13T12:54:14;5.55;;;3.00;;
73585;SDS011;61865;50.232;18.614;2023-10-13T12:56:41;9.15;;;3.40;;
73585;SDS011;61865;50.232;18.614;2023-10-13T12:59:04;10.68;;;3.72;;
73585;SDS011;61865;50.232;18.614;2023-10-13T13:01:29;7.07;;;3.25;;
73585;SDS011;61865;50.232;18.614;2023-10-13T13:03:54;8.80;;;3.08;;
73585;SDS011;61865;50.232;18.614;2023-10-13T13:06:17;7.28;;;2.95;;
73585;SDS011;61865;50.232;18.614;2023-10-13T13:08:44;5.85;;;3.00;;
73585;SDS011;61865;50.232;18.614;2023-10-13T13:11:07;5.97;;;2.83;;
73585;SDS011;61865;50.232;18.614;2023-10-13T13:13:31;6.10;;;2.60;;
73585;SDS011;61865;50.232;18.614;2023-10-13T13:15:53;6.53;;;2.78;;
73585;SDS011;61865;50.232;18.614;2023-10-13T13:18:16;5.18;;;2.78;;
73585;SDS011;61865;50.232;18.614;2023-10-13T13:20:39;7.85;;;2.78;;
73585;SDS011;61865;50.232;18.614;2023-10-13T13:23:13;4.35;;;2.60;;
73585;SDS011;61865;50.232;18.614;2023-10-13T13:25:35;5.15;;;2.95;;
73585;SDS011;61865;50.232;18.614;2023-10-13T13:28:02;6.70;;;2.42;;
73585;SDS011;61865;50.232;18.614;2023-10-13T13:30:27;4.97;;;2.60;;
73585;SDS011;61865;50.232;18.614;2023-10-13T13:32:53;6.32;;;2.97;;
73585;SDS011;61865;50.232;18.614;2023-10-13T13:35:15;5.10;;;2.58;;
73585;SDS011;61865;50.232;18.614;2023-10-13T13:37:38;6.55;;;2.80;;
73585;SDS011;61865;50.232;18.614;2023-10-13T13:40:03;7.72;;;3.35;;
73585;SDS011;61865;50.232;18.614;2023-10-13T13:42:34;5.75;;;2.75;;
73585;SDS011;61865;50.232;18.614;2023-10-13T13:44:58;6.65;;;2.95;;
73585;SDS011;61865;50.232;18.614;2023-10-13T13:47:23;5.32;;;2.53;;
73585;SDS011;61865;50.232;18.614;2023-10-13T13:49:45;7.07;;;2.92;;
73585;SDS011;61865;50.232;18.614;2023-10-13T13:52:11;4.78;;;2.88;;
73585;SDS011;61865;50.232;18.614;2023-10-13T13:54:37;5.55;;;2.83;;
73585;SDS011;61865;50.232;18.614;2023-10-13T13:57:00;6.72;;;2.72;;
73585;SDS011;61865;50.232;18.614;2023-10-13T13:59:23;6.70;;;3.00;;
73585;SDS011;61865;50.232;18.614;2023-10-13T14:01:53;6.20;;;3.03;;
73585;SDS011;61865;50.232;18.614;2023-10-13T14:04:20;7.05;;;3.78;;
73585;SDS011;61865;50.232;18.614;2023-10-13T14:06:43;8.07;;;3.53;;
73585;SDS011;61865;50.232;18.614;2023-10-13T14:09:06;8.77;;;3.08;;
73585;SDS011;61865;50.232;18.614;2023-10-13T14:11:35;6.43;;;3.20;;
73585;SDS011;61865;50.232;18.614;2023-10-13T14:14:15;6.68;;;3.10;;
73585;SDS011;61865;50.232;18.614;2023-10-13T14:16:53;10.23;;;3.05;;
73585;SDS011;61865;50.232;18.614;2023-10-13T14:19:24;7.97;;;3.80;;
73585;SDS011;61865;50.232;18.614;2023-10-13T14:21:47;10.80;;;3.90;;
73585;SDS011;61865;50.232;18.614;2023-10-13T14:24:13;8.13;;;4.60;;
73585;SDS011;61865;50.232;18.614;2023-10-13T14:26:38;7.50;;;3.60;;
73585;SDS011;61865;50.232;18.614;2023-10-13T14:29:03;7.57;;;3.55;;
73585;SDS011;61865;50.232;18.614;2023-10-13T14:31:28;6.28;;;3.78;;
73585;SDS011;61865;50.232;18.614;2023-10-13T14:33:50;8.05;;;3.85;;
73585;SDS011;61865;50.232;18.614;2023-10-13T14:36:14;5.18;;;3.30;;
73585;SDS011;61865;50.232;18.614;2023-10-13T14:38:40;9.65;;;3.75;;
73585;SDS011;61865;50.232;18.614;2023-10-13T14:41:04;12.18;;;4.25;;
73585;SDS011;61865;50.232;18.614;2023-10-13T14:43:26;7.65;;;3.53;;
73585;SDS011;61865;50.232;18.614;2023-10-13T14:45:49;11.20;;;4.60;;
73585;SDS011;61865;50.232;18.614;2023-10-13T14:48:11;11.80;;;3.97;;
73585;SDS011;61865;50.232;18.614;2023-10-13T14:50:33;12.63;;;4.15;;
73585;SDS011;61865;50.232;18.614;2023-10-13T14:52:57;11.68;;;4.47;;
73585;SDS011;61865;50.232;18.614;2023-10-13T14:55:20;8.75;;;4.10;;
73585;SDS011;61865;50.232;18.614;2023-10-13T14:57:58;11.13;;;4.03;;
73585;SDS011;61865;50.232;18.614;2023-10-13T15:00:23;9.07;;;4.10;;
73585;SDS011;61865;50.232;18.614;2023-10-13T15:02:48;7.90;;;4.70;;
73585;SDS011;61865;50.232;18.614;2023-10-13T15:05:10;13.13;;;4.80;;
73585;SDS011;61865;50.232;18.614;2023-10-13T15:07:36;10.48;;;4.38;;
73585;SDS011;61865;50.232;18.614;2023-10-13T15:10:05;12.88;;;4.53;;
73585;SDS011;61865;50.232;18.614;2023-10-13T15:12:28;14.20;;;4.70;;